South Kearny, New Jersey
Current Conditions -  °F | °C
As of 8:51 PM on Sunday 21 Dec 2014 (Local Time) from KEWR Reporting Station
Overcast Overcast  
Wind Chill: 28°   Ceiling: 1800
Heat Index: 35°   Visibility: 10mi
Dew Point: 28°   Wind: 9mph
Humidity: 76%   Direction: 350°N
Pressure: 30.34"   Gusts: NA
Location:  40.7563°N, 74.1217°W
Report Text: KEWR 220151Z 35008KT 10SM BKN018 OVC033 02/M02 A3034 RMK AO2 SLP273 T00171022
Loading
Personal Weather Stations






























Interactive Weather Map New forecast layout! Learn more

10-Day Weather Forecast

Advertisements
Track Severe Weather on mobile